createdAt,value
2023-08-23T00:01:27.796Z,8.30
2023-08-23T00:04:00.926Z,7.90
2023-08-23T00:06:33.479Z,8.60
2023-08-23T00:09:06.582Z,8.30
2023-08-23T00:11:39.396Z,9.30
2023-08-23T00:14:12.318Z,9.40
2023-08-23T00:16:44.736Z,8.80
2023-08-23T00:19:17.594Z,8.10
2023-08-23T00:21:50.229Z,9.00
2023-08-23T00:24:23.021Z,8.50
2023-08-23T00:26:58.254Z,8.00
2023-08-23T00:29:30.999Z,7.60
2023-08-23T00:32:03.810Z,6.60
2023-08-23T00:34:36.895Z,5.50
2023-08-23T00:37:09.538Z,5.30
2023-08-23T00:39:42.721Z,4.70
2023-08-23T00:42:15.512Z,4.70
2023-08-23T00:44:48.545Z,5.20
2023-08-23T00:47:21.252Z,5.30
2023-08-23T00:49:54.755Z,5.70
2023-08-23T00:52:33.558Z,6.70
2023-08-23T00:57:43.429Z,6.30
2023-08-23T01:00:20.251Z,6.00
2023-08-23T01:02:53.674Z,5.90
2023-08-23T01:05:31.073Z,6.80
2023-08-23T01:08:11.827Z,5.50
2023-08-23T01:10:49.187Z,4.70
2023-08-23T01:13:29.738Z,5.40
2023-08-23T01:16:02.903Z,4.60
2023-08-23T01:18:35.503Z,4.30
2023-08-23T01:21:12.019Z,5.00
2023-08-23T01:23:46.163Z,4.70
2023-08-23T01:26:18.546Z,4.80
2023-08-23T01:28:52.673Z,4.90
2023-08-23T01:31:28.020Z,5.00
2023-08-23T01:34:10.608Z,6.30
2023-08-23T01:36:45.263Z,5.80
2023-08-23T01:39:18.452Z,5.60
2023-08-23T01:41:51.725Z,9.10
2023-08-23T01:44:24.740Z,7.50
2023-08-23T01:46:57.832Z,6.80
2023-08-23T01:49:30.285Z,7.00
2023-08-23T01:52:02.790Z,9.30
2023-08-23T01:54:35.310Z,8.30
2023-08-23T01:57:08.374Z,6.00
2023-08-23T01:59:41.527Z,6.50
2023-08-23T02:02:14.280Z,6.90
2023-08-23T02:04:47.201Z,7.60
2023-08-23T02:07:20.918Z,8.30
2023-08-23T02:09:53.346Z,7.50
2023-08-23T02:12:26.016Z,8.40
2023-08-23T02:14:58.432Z,7.60
2023-08-23T02:17:32.286Z,8.20
2023-08-23T02:20:04.966Z,8.20
2023-08-23T02:22:37.377Z,8.80
2023-08-23T02:25:12.014Z,8.00
2023-08-23T02:30:16.943Z,7.50
2023-08-23T02:32:49.367Z,7.60
2023-08-23T02:35:21.813Z,8.70
2023-08-23T02:37:54.834Z,8.90
2023-08-23T02:40:28.278Z,8.50
2023-08-23T02:43:00.965Z,9.00
2023-08-23T02:45:33.677Z,9.30
2023-08-23T02:48:06.700Z,11.50
2023-08-23T02:50:39.209Z,9.80
2023-08-23T02:53:11.973Z,9.10
2023-08-23T02:55:44.398Z,9.40
2023-08-23T02:58:16.843Z,11.20
2023-08-23T03:00:49.280Z,10.40
2023-08-23T03:03:22.454Z,11.40
2023-08-23T03:05:57.469Z,10.10
2023-08-23T03:08:30.357Z,7.70
2023-08-23T03:11:06.801Z,6.60
2023-08-23T03:13:39.218Z,5.80
2023-08-23T03:16:11.996Z,5.40
2023-08-23T03:18:44.945Z,5.10
2023-08-23T03:21:17.545Z,5.30
2023-08-23T03:23:50.484Z,6.10
2023-08-23T03:26:22.993Z,6.10
2023-08-23T03:28:56.219Z,6.10
2023-08-23T03:31:29.400Z,5.50
2023-08-23T03:34:02.518Z,14.60
2023-08-23T03:36:36.409Z,12.30
2023-08-23T03:39:09.206Z,6.70
2023-08-23T03:41:41.496Z,5.20
2023-08-23T03:44:13.903Z,5.20
2023-08-23T03:46:46.986Z,5.30
2023-08-23T03:49:20.973Z,4.90
2023-08-23T03:51:53.362Z,5.80
2023-08-23T03:54:26.739Z,5.90
2023-08-23T03:56:59.797Z,5.50
2023-08-23T03:59:32.996Z,4.80
2023-08-23T04:02:06.388Z,4.60
2023-08-23T04:04:39.276Z,4.30
2023-08-23T04:07:14.420Z,4.60
2023-08-23T04:09:46.870Z,4.80
2023-08-23T04:12:19.502Z,4.90
2023-08-23T04:14:52.031Z,4.50
2023-08-23T04:17:25.343Z,5.30
2023-08-23T04:19:58.277Z,6.20
2023-08-23T04:22:32.106Z,6.70
2023-08-23T04:25:05.475Z,6.90
2023-08-23T04:27:38.217Z,6.40
2023-08-23T04:30:14.532Z,6.10
2023-08-23T04:32:47.526Z,6.50
2023-08-23T04:35:21.977Z,5.30
2023-08-23T04:37:55.206Z,6.20
2023-08-23T04:40:29.379Z,5.80
2023-08-23T04:43:01.930Z,7.60
2023-08-23T04:45:38.246Z,7.40
2023-08-23T04:48:13.311Z,6.30
2023-08-23T04:50:51.838Z,6.00
2023-08-23T04:53:24.913Z,8.80
2023-08-23T04:56:00.514Z,8.90
2023-08-23T04:58:32.913Z,9.90
2023-08-23T05:01:07.061Z,9.50
2023-08-23T05:03:42.945Z,15.30
2023-08-23T05:06:15.651Z,14.70
2023-08-23T05:08:48.387Z,12.60
2023-08-23T05:11:24.944Z,15.80
2023-08-23T05:13:57.958Z,15.70
2023-08-23T05:16:30.435Z,15.20
2023-08-23T05:19:03.607Z,10.30
2023-08-23T05:21:36.602Z,9.60
2023-08-23T05:24:09.400Z,15.50
2023-08-23T05:26:42.223Z,17.80
2023-08-23T05:29:15.562Z,15.50
2023-08-23T05:31:48.146Z,12.90
2023-08-23T05:34:20.659Z,10.00
2023-08-23T05:36:53.555Z,9.90
2023-08-23T05:39:26.018Z,19.60
2023-08-23T05:41:58.304Z,8.10
2023-08-23T05:44:30.696Z,7.80
2023-08-23T05:47:03.781Z,11.60
2023-08-23T05:49:36.233Z,9.30
2023-08-23T05:52:09.229Z,11.20
2023-08-23T05:54:42.830Z,7.80
2023-08-23T05:57:15.584Z,10.50
2023-08-23T05:59:48.562Z,8.30
2023-08-23T06:02:21.235Z,5.60
2023-08-23T06:04:54.519Z,8.30
2023-08-23T06:07:27.088Z,6.50
2023-08-23T06:09:59.913Z,5.40
2023-08-23T06:12:32.291Z,6.30
2023-08-23T06:15:05.576Z,11.80
2023-08-23T06:17:38.070Z,6.20
2023-08-23T06:20:13.282Z,8.80
2023-08-23T06:22:46.076Z,5.30
2023-08-23T06:25:18.635Z,10.90
2023-08-23T06:27:51.586Z,5.10
2023-08-23T06:30:24.977Z,4.90
2023-08-23T06:32:58.206Z,5.00
2023-08-23T06:35:31.055Z,7.20
2023-08-23T06:38:03.789Z,4.90
2023-08-23T06:40:36.383Z,4.70
2023-08-23T06:43:09.307Z,3.60
2023-08-23T06:45:41.673Z,3.90
2023-08-23T06:48:14.723Z,3.60
2023-08-23T06:50:48.083Z,3.50
2023-08-23T06:53:20.562Z,3.90
2023-08-23T06:55:53.045Z,4.20
2023-08-23T06:58:25.428Z,3.00
2023-08-23T07:01:00.360Z,3.50
2023-08-23T07:03:33.137Z,3.40
2023-08-23T07:06:07.051Z,3.30
2023-08-23T07:08:39.688Z,3.00
2023-08-23T07:11:12.811Z,2.70
2023-08-23T07:13:45.214Z,3.00
2023-08-23T07:16:18.058Z,2.80
2023-08-23T07:18:50.868Z,3.10
2023-08-23T07:21:23.958Z,3.90
2023-08-23T07:23:56.372Z,2.90
2023-08-23T07:26:29.010Z,3.10
2023-08-23T07:29:01.732Z,2.40
2023-08-23T07:31:34.629Z,2.90
2023-08-23T07:34:07.695Z,3.00
2023-08-23T07:36:40.161Z,2.30
2023-08-23T07:39:12.826Z,1.70
2023-08-23T07:41:45.524Z,2.20
2023-08-23T07:44:18.283Z,2.30
2023-08-23T07:46:50.664Z,1.80
2023-08-23T07:49:24.040Z,1.60
2023-08-23T07:51:56.534Z,1.80
2023-08-23T07:54:29.309Z,1.60
2023-08-23T07:57:02.077Z,2.30
2023-08-23T07:59:34.794Z,1.30
2023-08-23T08:02:08.452Z,1.70
2023-08-23T08:04:40.939Z,2.40
2023-08-23T08:07:21.033Z,2.60
2023-08-23T08:10:05.275Z,1.50
2023-08-23T08:12:38.058Z,1.50
2023-08-23T08:15:11.851Z,1.60
2023-08-23T08:17:45.242Z,1.70
2023-08-23T08:20:18.520Z,2.00
2023-08-23T08:22:51.758Z,1.80
2023-08-23T08:25:24.495Z,1.40
2023-08-23T08:27:57.304Z,1.50
2023-08-23T08:30:29.754Z,1.80
2023-08-23T08:33:02.920Z,1.40
2023-08-23T08:35:35.363Z,2.00
2023-08-23T08:38:08.035Z,1.60
2023-08-23T08:40:41.219Z,1.70
2023-08-23T08:43:14.131Z,3.60
2023-08-23T08:45:47.003Z,3.20
2023-08-23T08:48:19.707Z,5.40
2023-08-23T08:50:52.962Z,1.70
2023-08-23T08:53:27.795Z,1.20
2023-08-23T08:56:00.730Z,1.90
2023-08-23T08:58:35.675Z,2.70
2023-08-23T09:01:08.506Z,1.90
2023-08-23T09:03:42.159Z,1.90
2023-08-23T09:06:15.122Z,2.40
2023-08-23T09:08:48.546Z,1.60
2023-08-23T09:11:22.693Z,1.60
2023-08-23T09:13:56.477Z,2.30
2023-08-23T09:16:29.092Z,2.60
2023-08-23T09:19:02.329Z,2.00
2023-08-23T09:21:35.942Z,2.00
2023-08-23T09:24:08.615Z,1.30
2023-08-23T09:26:41.407Z,1.30
2023-08-23T09:29:14.365Z,1.80
2023-08-23T09:31:46.907Z,1.50
2023-08-23T09:34:20.052Z,2.20
2023-08-23T09:36:53.227Z,1.30
2023-08-23T09:39:27.202Z,1.20
2023-08-23T09:42:04.528Z,1.40
2023-08-23T09:44:41.976Z,1.00
2023-08-23T09:47:17.574Z,1.20
2023-08-23T09:49:52.629Z,1.40
2023-08-23T09:52:31.248Z,1.30
2023-08-23T09:55:15.000Z,1.20
2023-08-23T09:57:49.588Z,1.30
2023-08-23T10:02:54.324Z,1.20
2023-08-23T10:05:29.193Z,1.20
2023-08-23T10:08:03.727Z,1.00
2023-08-23T10:10:36.746Z,1.10
2023-08-23T10:13:09.702Z,1.30
2023-08-23T10:15:43.829Z,1.10
2023-08-23T10:20:48.619Z,1.10
2023-08-23T10:23:21.355Z,1.30
2023-08-23T10:25:53.735Z,1.30
2023-08-23T10:28:26.147Z,1.20
2023-08-23T10:31:15.261Z,1.20
2023-08-23T10:33:58.029Z,1.20
2023-08-23T10:36:32.444Z,1.30
2023-08-23T10:39:07.049Z,1.30
2023-08-23T10:41:41.072Z,1.30
2023-08-23T10:46:53.111Z,1.50
2023-08-23T10:49:27.022Z,1.50
2023-08-23T10:51:59.740Z,1.40
2023-08-23T10:54:33.951Z,1.20
2023-08-23T10:59:37.441Z,1.60
2023-08-23T11:02:10.742Z,1.60
2023-08-23T11:04:43.984Z,1.40
2023-08-23T11:07:16.861Z,1.20
2023-08-23T11:09:49.323Z,1.00
2023-08-23T11:12:21.822Z,1.20
2023-08-23T11:14:54.480Z,1.30
2023-08-23T11:17:27.340Z,1.30
2023-08-23T11:20:00.413Z,1.30
2023-08-23T11:22:33.199Z,1.50
2023-08-23T11:25:06.198Z,5.10
2023-08-23T11:27:39.256Z,6.80
2023-08-23T11:30:12.691Z,1.40
2023-08-23T11:32:47.279Z,1.50
2023-08-23T11:35:23.749Z,2.50
2023-08-23T11:37:58.621Z,1.40
2023-08-23T11:40:31.169Z,1.50
2023-08-23T11:43:20.288Z,1.30
2023-08-23T11:45:55.294Z,1.70
2023-08-23T11:48:27.826Z,3.50
2023-08-23T11:51:02.456Z,2.00
2023-08-23T11:53:35.240Z,1.60
2023-08-23T11:56:11.066Z,2.90
2023-08-23T11:58:43.639Z,2.90
2023-08-23T12:01:17.055Z,1.80
2023-08-23T12:03:49.575Z,2.40
2023-08-23T12:06:22.913Z,2.30
2023-08-23T12:08:56.838Z,2.40
2023-08-23T12:11:29.955Z,2.70
2023-08-23T12:14:07.323Z,2.80
2023-08-23T12:16:41.122Z,1.60
2023-08-23T12:19:25.811Z,1.40
2023-08-23T12:22:03.681Z,1.10
2023-08-23T12:24:36.370Z,1.90
2023-08-23T12:27:08.740Z,1.70
2023-08-23T12:29:42.664Z,1.50
2023-08-23T12:34:46.166Z,1.50
2023-08-23T12:37:19.358Z,1.50
2023-08-23T12:39:52.151Z,1.90
2023-08-23T12:42:24.931Z,1.40
2023-08-23T12:44:57.698Z,2.00
2023-08-23T12:47:30.298Z,1.50
2023-08-23T12:50:03.713Z,1.70
2023-08-23T12:52:36.155Z,1.50
2023-08-23T12:55:09.999Z,2.40
2023-08-23T12:57:42.425Z,2.00
2023-08-23T13:00:30.427Z,1.50
2023-08-23T13:03:05.683Z,1.90
2023-08-23T13:05:38.086Z,1.80
2023-08-23T13:08:10.902Z,1.70
2023-08-23T13:10:43.802Z,2.40
2023-08-23T13:13:16.449Z,1.90
2023-08-23T13:15:49.030Z,1.80
2023-08-23T13:18:21.704Z,1.60
2023-08-23T13:20:54.401Z,1.40
2023-08-23T13:23:26.852Z,1.10
2023-08-23T13:25:59.537Z,1.70
2023-08-23T13:28:32.077Z,1.80
2023-08-23T13:31:05.992Z,1.50
2023-08-23T13:36:10.500Z,1.70
2023-08-23T13:38:43.151Z,1.50
2023-08-23T13:41:15.630Z,1.60
2023-08-23T13:43:48.723Z,1.60
2023-08-23T13:46:22.096Z,1.30
2023-08-23T13:48:54.559Z,2.00
2023-08-23T13:51:27.214Z,1.60
2023-08-23T13:54:00.529Z,1.30
2023-08-23T13:56:33.643Z,1.20
2023-08-23T13:59:06.414Z,1.40
2023-08-23T14:01:39.297Z,1.40
2023-08-23T14:04:11.673Z,1.80
2023-08-23T14:06:44.120Z,1.50
2023-08-23T14:09:16.847Z,1.60
2023-08-23T14:11:58.080Z,2.00
2023-08-23T14:14:30.845Z,1.50
2023-08-23T14:17:03.214Z,21.40
2023-08-23T14:19:47.043Z,47.00
2023-08-23T14:22:20.268Z,5.70
2023-08-23T14:24:52.873Z,2.40
2023-08-23T14:27:25.242Z,1.60
2023-08-23T14:29:57.994Z,1.40
2023-08-23T14:32:30.522Z,1.50
2023-08-23T14:35:04.826Z,1.90
2023-08-23T14:37:37.592Z,4.60
2023-08-23T14:40:13.855Z,3.90
2023-08-23T14:42:47.506Z,2.10
2023-08-23T14:45:20.136Z,1.30
2023-08-23T14:47:52.964Z,7.20
2023-08-23T14:50:27.124Z,3.70
2023-08-23T14:53:00.066Z,3.60
2023-08-23T14:55:34.220Z,3.30
2023-08-23T15:00:37.898Z,3.10
2023-08-23T15:03:10.446Z,1.60
2023-08-23T15:05:43.027Z,1.80
2023-08-23T15:08:15.422Z,3.10
2023-08-23T15:10:47.739Z,2.40
2023-08-23T15:13:21.251Z,1.20
2023-08-23T15:16:01.082Z,1.50
2023-08-23T15:18:33.922Z,1.70
2023-08-23T15:21:06.442Z,3.50
2023-08-23T15:23:38.928Z,2.20
2023-08-23T15:26:11.473Z,3.80
2023-08-23T15:28:54.972Z,1.60
2023-08-23T15:31:29.538Z,1.60
2023-08-23T15:34:02.240Z,1.90
2023-08-23T15:36:36.028Z,1.60
2023-08-23T15:39:08.410Z,1.20
2023-08-23T15:41:41.136Z,1.40
2023-08-23T15:44:13.987Z,2.90
2023-08-23T15:46:47.141Z,2.30
2023-08-23T15:49:19.682Z,2.20
2023-08-23T15:51:52.911Z,1.60
2023-08-23T15:54:25.458Z,1.50
2023-08-23T15:56:58.139Z,1.50
2023-08-23T15:59:30.545Z,1.20
2023-08-23T16:02:04.336Z,1.60
2023-08-23T16:04:36.804Z,1.30
2023-08-23T16:07:09.680Z,1.50
2023-08-23T16:09:42.117Z,1.50
2023-08-23T16:12:14.721Z,1.20
2023-08-23T16:14:48.286Z,1.50
2023-08-23T16:17:20.707Z,1.30
2023-08-23T16:19:53.369Z,1.30
2023-08-23T16:22:27.057Z,1.70
2023-08-23T16:25:00.160Z,1.80
2023-08-23T16:27:32.625Z,1.60
2023-08-23T16:30:07.894Z,1.50
2023-08-23T16:32:40.298Z,1.50
2023-08-23T16:35:13.660Z,1.40
2023-08-23T16:37:46.332Z,1.80
2023-08-23T16:40:18.795Z,2.20
2023-08-23T16:42:51.250Z,2.90
2023-08-23T16:45:24.230Z,2.40
2023-08-23T16:47:57.046Z,2.30
2023-08-23T16:50:29.455Z,2.00
2023-08-23T16:53:01.978Z,2.10
2023-08-23T16:55:37.145Z,2.20
2023-08-23T16:58:09.758Z,2.60
2023-08-23T17:00:42.222Z,2.40
2023-08-23T17:03:14.688Z,3.90
2023-08-23T17:05:47.904Z,5.80
2023-08-23T17:08:20.397Z,5.80
2023-08-23T17:10:52.891Z,3.90
2023-08-23T17:13:25.368Z,3.30
2023-08-23T17:15:58.000Z,5.20
2023-08-23T17:18:30.703Z,5.70
2023-08-23T17:21:04.017Z,8.80
2023-08-23T17:23:36.555Z,13.20
2023-08-23T17:26:09.048Z,17.10
2023-08-23T17:28:41.429Z,12.70
2023-08-23T17:31:15.381Z,7.00
2023-08-23T17:33:47.834Z,4.10
2023-08-23T17:36:20.281Z,4.00
2023-08-23T17:38:53.174Z,17.00
2023-08-23T17:41:25.446Z,10.50
2023-08-23T17:43:57.918Z,7.70
2023-08-23T17:46:40.261Z,4.60
2023-08-23T17:49:14.307Z,3.30
2023-08-23T17:51:47.450Z,8.30
2023-08-23T17:54:19.819Z,18.10
2023-08-23T17:56:52.425Z,9.80
2023-08-23T17:59:29.441Z,7.00
2023-08-23T18:02:02.013Z,4.80
2023-08-23T18:04:35.792Z,4.10
2023-08-23T18:07:08.408Z,4.00
2023-08-23T18:09:41.200Z,4.80
2023-08-23T18:12:13.681Z,5.90
2023-08-23T18:14:46.149Z,6.20
2023-08-23T18:17:18.471Z,4.10
2023-08-23T18:19:51.104Z,4.60
2023-08-23T18:22:24.076Z,4.00
2023-08-23T18:24:57.177Z,4.00
2023-08-23T18:27:30.343Z,4.50
2023-08-23T18:30:03.034Z,4.80
2023-08-23T18:32:35.851Z,5.70
2023-08-23T18:35:10.091Z,6.90
2023-08-23T18:37:42.911Z,6.00
2023-08-23T18:40:15.676Z,7.40
2023-08-23T18:42:48.605Z,7.80
2023-08-23T18:45:21.990Z,9.50
2023-08-23T18:47:55.324Z,9.80
2023-08-23T18:50:28.122Z,10.20
2023-08-23T18:53:00.630Z,13.50
2023-08-23T18:55:33.461Z,8.10
2023-08-23T18:58:06.195Z,7.00
2023-08-23T19:00:38.682Z,7.10
2023-08-23T19:03:14.600Z,6.10
2023-08-23T19:05:53.530Z,6.00
2023-08-23T19:08:25.995Z,6.70
2023-08-23T19:11:00.353Z,5.90
2023-08-23T19:16:04.150Z,6.30
2023-08-23T19:18:36.936Z,6.50
2023-08-23T19:21:10.219Z,9.70
2023-08-23T19:23:42.696Z,8.60
2023-08-23T19:26:15.030Z,9.20
2023-08-23T19:28:48.074Z,8.30
2023-08-23T19:31:20.490Z,8.20
2023-08-23T19:33:52.985Z,8.00
2023-08-23T19:36:25.788Z,7.60
2023-08-23T19:38:58.904Z,6.40
2023-08-23T19:41:31.308Z,8.60
2023-08-23T19:44:03.741Z,6.70
2023-08-23T19:46:36.319Z,7.20
2023-08-23T19:49:08.878Z,7.70
2023-08-23T19:51:41.681Z,7.10
2023-08-23T19:54:14.085Z,7.30
2023-08-23T19:56:46.546Z,7.20
2023-08-23T19:59:19.496Z,6.80
2023-08-23T20:01:52.287Z,8.20
2023-08-23T20:04:25.301Z,7.90
2023-08-23T20:07:02.177Z,7.50
2023-08-23T20:09:34.579Z,7.80
2023-08-23T20:12:07.582Z,7.50
2023-08-23T20:14:40.353Z,9.90
2023-08-23T20:17:12.771Z,11.50
2023-08-23T20:19:45.225Z,13.80
2023-08-23T20:22:17.972Z,18.20
2023-08-23T20:24:53.016Z,19.20
2023-08-23T20:27:25.726Z,15.80
2023-08-23T20:30:01.069Z,13.80
2023-08-23T20:32:33.852Z,10.80
2023-08-23T20:35:08.031Z,9.90
2023-08-23T20:37:40.513Z,9.20
2023-08-23T20:40:14.905Z,8.80
2023-08-23T20:45:18.955Z,11.20
2023-08-23T20:47:51.847Z,10.80
2023-08-23T20:50:24.999Z,11.20
2023-08-23T20:52:57.775Z,10.40
2023-08-23T20:55:31.033Z,12.10
2023-08-23T20:58:03.709Z,12.40
2023-08-23T21:00:36.140Z,11.60
2023-08-23T21:03:08.998Z,11.00
2023-08-23T21:05:45.920Z,10.80
2023-08-23T21:08:18.714Z,10.10
2023-08-23T21:10:51.406Z,11.50
2023-08-23T21:13:23.805Z,11.30
2023-08-23T21:15:56.961Z,11.20
2023-08-23T21:18:29.743Z,11.40
2023-08-23T21:21:02.284Z,11.20
2023-08-23T21:23:34.755Z,11.70
2023-08-23T21:26:07.988Z,12.00
2023-08-23T21:28:40.617Z,15.80
2023-08-23T21:31:13.372Z,17.90
2023-08-23T21:33:45.800Z,21.90
2023-08-23T21:36:18.263Z,24.10
2023-08-23T21:38:51.182Z,22.90
2023-08-23T21:41:23.560Z,14.00
2023-08-23T21:43:56.004Z,9.00
2023-08-23T21:46:29.172Z,6.50
2023-08-23T21:49:01.634Z,6.70
2023-08-23T21:51:34.103Z,5.60
2023-08-23T21:54:06.793Z,6.20
2023-08-23T21:56:40.006Z,5.30
2023-08-23T21:59:12.814Z,5.40
2023-08-23T22:01:45.222Z,5.70
2023-08-23T22:04:18.019Z,5.30
2023-08-23T22:06:50.380Z,5.20
2023-08-23T22:09:24.828Z,5.40
2023-08-23T22:11:57.324Z,6.30
2023-08-23T22:14:30.420Z,5.50
2023-08-23T22:17:03.247Z,5.50
2023-08-23T22:19:35.708Z,5.70
2023-08-23T22:22:08.432Z,5.70
2023-08-23T22:24:40.835Z,5.60
2023-08-23T22:27:13.260Z,5.50
2023-08-23T22:29:45.977Z,6.40
2023-08-23T22:32:18.468Z,5.20
2023-08-23T22:34:50.871Z,5.80
2023-08-23T22:37:23.724Z,5.90
2023-08-23T22:39:56.140Z,6.10
2023-08-23T22:42:29.048Z,5.40
2023-08-23T22:45:01.575Z,5.40
2023-08-23T22:47:34.511Z,5.70
2023-08-23T22:50:08.246Z,8.60
2023-08-23T22:52:40.740Z,17.30
2023-08-23T22:55:13.405Z,8.80
2023-08-23T22:57:46.153Z,7.00
2023-08-23T23:00:18.829Z,6.40
2023-08-23T23:02:51.407Z,6.60
2023-08-23T23:05:24.433Z,6.00
2023-08-23T23:07:57.533Z,7.40
2023-08-23T23:10:29.919Z,8.70
2023-08-23T23:13:03.962Z,14.70
2023-08-23T23:15:37.015Z,11.90
2023-08-23T23:18:09.814Z,9.30
2023-08-23T23:20:42.981Z,8.70
2023-08-23T23:23:15.847Z,13.90
2023-08-23T23:25:48.229Z,11.80
2023-08-23T23:28:20.672Z,10.80
2023-08-23T23:30:53.092Z,7.40
2023-08-23T23:33:27.110Z,7.30
2023-08-23T23:35:59.459Z,7.60
2023-08-23T23:38:31.816Z,5.50
2023-08-23T23:41:05.453Z,12.10
2023-08-23T23:43:38.225Z,7.80
2023-08-23T23:46:10.953Z,7.60
2023-08-23T23:48:43.336Z,6.10
2023-08-23T23:51:15.915Z,7.20
2023-08-23T23:53:48.943Z,6.70
2023-08-23T23:56:21.381Z,6.60
2023-08-23T23:58:53.847Z,6.60
